KRDR/RDR METAR and TAF weather

Enter ICAO airport designator
Station Type Date Time Source
KRDR METAR 2022/08/16 19:36 UTC NOAA

KRDR 161936Z 00000KT 10SM SCT025 27/20 A3004 RMK AO2A SLP174 $


Station Type Date Time Source
KRDR Decoded METAR 2022/08/16 19:36 UTC NOAA

Grand Forks Air Force Base, ND, United States (KRDR) 47-58N 097-24W 278M
Aug 16, 2022 - 03:36 PM EDT / 2022.08.16 1936 UTC
Wind: Calm:0
Visibility: 10 mile(s):0
Sky conditions: partly cloudy
Temperature: 80 F (27 C)
Dew Point: 68 F (20 C)
Relative Humidity: 65%
Pressure (altimeter): 30.04 in. Hg (1017 hPa)
ob: KRDR 161936Z 00000KT 10SM SCT025 27/20 A3004 RMK AO2A SLP174
cycle: 19

Station Type Date Time Source
KRDR TAF 2022/08/16 18:08 UTC NOAA

TAF KRDR 161800Z 1618/1724 VRB06KT 9999 BKN015 OVC025 QNH3003INS
BECMG 1620/1621 VRB06KT 9999 FEW020 BKN035 QNH3002INS
BECMG 1708/1709 VRB06KT 4800 BR FEW025 QNH3004INS
BECMG 1717/1718 VRB06KT 9999 NSW SCT035 QNH2998INS TX25/1621Z TN18/1707Z

Example: see airport list